createdAt,value
2022-10-18T00:01:20.239Z,70.90
2022-10-18T00:03:50.954Z,70.70
2022-10-18T00:06:21.037Z,70.80
2022-10-18T00:08:49.764Z,70.80
2022-10-18T00:11:18.581Z,70.90
2022-10-18T00:13:47.626Z,71.00
2022-10-18T00:16:18.019Z,71.10
2022-10-18T00:18:47.915Z,71.20
2022-10-18T00:21:19.056Z,71.40
2022-10-18T00:23:50.713Z,71.30
2022-10-18T00:26:21.501Z,71.20
2022-10-18T00:28:53.707Z,71.10
2022-10-18T00:31:25.441Z,71.10
2022-10-18T00:33:55.943Z,71.10
2022-10-18T00:36:26.047Z,71.00
2022-10-18T00:38:56.839Z,70.70
2022-10-18T00:41:28.249Z,70.50
2022-10-18T00:44:00.140Z,70.50
2022-10-18T00:46:30.668Z,70.40
2022-10-18T00:49:02.434Z,70.40
2022-10-18T00:51:35.095Z,70.50
2022-10-18T00:54:05.774Z,70.50
2022-10-18T00:56:35.543Z,70.50
2022-10-18T00:59:04.930Z,70.60
2022-10-18T01:01:34.063Z,70.70
2022-10-18T01:04:03.442Z,70.80
2022-10-18T01:06:32.711Z,70.90
2022-10-18T01:09:14.217Z,70.90
2022-10-18T01:12:04.394Z,70.90
2022-10-18T01:14:40.987Z,70.90
2022-10-18T01:17:17.510Z,70.70
2022-10-18T01:20:14.115Z,70.70
2022-10-18T01:22:46.359Z,70.70
2022-10-18T01:25:28.074Z,70.60
2022-10-18T01:28:04.009Z,70.60
2022-10-18T01:30:55.814Z,70.70
2022-10-18T01:33:32.686Z,70.60
2022-10-18T01:36:06.871Z,70.50
2022-10-18T01:38:37.946Z,70.80
2022-10-18T01:41:13.110Z,70.80
2022-10-18T01:43:48.817Z,70.80
2022-10-18T01:46:24.612Z,70.70
2022-10-18T01:48:54.647Z,70.80
2022-10-18T01:51:26.200Z,70.80
2022-10-18T01:53:55.411Z,71.00
2022-10-18T01:56:31.504Z,71.00
2022-10-18T01:59:20.402Z,71.00
2022-10-18T02:02:01.702Z,71.00
2022-10-18T02:04:38.122Z,71.00
2022-10-18T02:07:14.116Z,71.00
2022-10-18T02:09:50.550Z,71.00
2022-10-18T02:12:22.309Z,71.80
2022-10-18T02:14:51.733Z,71.10
2022-10-18T02:17:24.520Z,71.10
2022-10-18T02:19:56.863Z,71.30
2022-10-18T02:22:29.225Z,71.30
2022-10-18T02:25:02.786Z,71.30
2022-10-18T02:27:31.819Z,71.40
2022-10-18T02:30:00.668Z,71.30
2022-10-18T02:32:34.916Z,71.40
2022-10-18T02:35:08.921Z,71.50
2022-10-18T02:37:39.865Z,71.70
2022-10-18T02:40:10.730Z,71.80
2022-10-18T02:42:44.983Z,71.90
2022-10-18T02:45:14.940Z,72.10
2022-10-18T02:47:45.155Z,72.10
2022-10-18T02:50:14.769Z,72.40
2022-10-18T02:52:43.460Z,72.50
2022-10-18T02:55:13.384Z,72.60
2022-10-18T02:57:42.086Z,72.70
2022-10-18T03:00:12.053Z,72.70
2022-10-18T03:02:40.842Z,72.70
2022-10-18T03:05:11.780Z,72.60
2022-10-18T03:07:40.692Z,72.50
2022-10-18T03:10:10.558Z,72.40
2022-10-18T03:12:39.499Z,72.50
2022-10-18T03:15:09.216Z,72.60
2022-10-18T03:17:38.238Z,72.60
2022-10-18T03:20:08.355Z,72.60
2022-10-18T03:22:38.522Z,72.70
2022-10-18T03:25:08.033Z,72.70
2022-10-18T03:27:36.794Z,72.60
2022-10-18T03:30:06.082Z,72.60
2022-10-18T03:32:35.254Z,72.70
2022-10-18T03:35:04.757Z,72.80
2022-10-18T03:37:33.800Z,72.80
2022-10-18T03:40:04.603Z,72.70
2022-10-18T03:42:33.785Z,72.60
2022-10-18T03:45:03.063Z,72.70
2022-10-18T03:47:32.202Z,72.80
2022-10-18T03:50:01.240Z,72.70
2022-10-18T03:52:30.639Z,72.80
2022-10-18T03:54:59.715Z,72.80
2022-10-18T03:57:29.895Z,72.80
2022-10-18T03:59:58.890Z,72.70
2022-10-18T04:02:28.192Z,72.60
2022-10-18T04:04:58.728Z,72.70
2022-10-18T04:07:28.198Z,73.40
2022-10-18T04:09:57.039Z,72.70
2022-10-18T04:12:25.949Z,72.70
2022-10-18T04:14:56.566Z,72.80
2022-10-18T04:17:25.682Z,72.80
2022-10-18T04:19:54.752Z,72.80
2022-10-18T04:22:23.859Z,72.80
2022-10-18T04:24:53.738Z,72.80
2022-10-18T04:27:22.650Z,72.80
2022-10-18T04:29:51.756Z,72.80
2022-10-18T04:32:22.207Z,72.80
2022-10-18T04:34:51.350Z,72.80
2022-10-18T04:37:20.225Z,72.80
2022-10-18T04:39:52.604Z,73.10
2022-10-18T04:42:22.983Z,73.20
2022-10-18T04:44:51.966Z,73.50
2022-10-18T04:47:22.213Z,73.70
2022-10-18T04:49:51.339Z,73.90
2022-10-18T04:52:20.458Z,73.90
2022-10-18T04:54:49.386Z,73.90
2022-10-18T04:57:18.460Z,74.00
2022-10-18T04:59:47.593Z,74.10
2022-10-18T05:02:16.412Z,74.10
2022-10-18T05:04:46.938Z,74.20
2022-10-18T05:07:16.096Z,74.20
2022-10-18T05:09:45.412Z,74.20
2022-10-18T05:12:14.460Z,74.30
2022-10-18T05:14:43.478Z,74.30
2022-10-18T05:17:12.576Z,74.40
2022-10-18T05:19:41.458Z,74.40
2022-10-18T05:22:11.919Z,74.40
2022-10-18T05:24:40.862Z,74.40
2022-10-18T05:27:10.192Z,74.40
2022-10-18T05:29:38.880Z,74.40
2022-10-18T05:32:07.742Z,74.40
2022-10-18T05:34:36.878Z,74.40
2022-10-18T05:37:06.735Z,74.50
2022-10-18T05:39:38.218Z,74.50
2022-10-18T05:42:08.131Z,74.60
2022-10-18T05:44:36.798Z,74.60
2022-10-18T05:47:05.948Z,74.70
2022-10-18T05:49:36.016Z,74.90
2022-10-18T05:52:05.214Z,75.00
2022-10-18T05:54:34.386Z,75.20
2022-10-18T05:57:04.979Z,75.20
2022-10-18T05:59:34.014Z,75.30
2022-10-18T06:02:03.390Z,75.30
2022-10-18T06:04:32.463Z,75.40
2022-10-18T06:07:01.403Z,75.40
2022-10-18T06:09:30.631Z,75.40
2022-10-18T06:11:59.599Z,75.40
2022-10-18T06:14:29.885Z,75.40
2022-10-18T06:16:58.786Z,75.40
2022-10-18T06:19:27.983Z,75.40
2022-10-18T06:21:57.083Z,76.10
2022-10-18T06:24:26.660Z,75.20
2022-10-18T06:26:55.738Z,75.20
2022-10-18T06:29:25.242Z,75.40
2022-10-18T06:31:55.600Z,75.30
2022-10-18T06:34:24.467Z,75.40
2022-10-18T06:36:56.561Z,75.20
2022-10-18T06:39:28.081Z,75.20
2022-10-18T06:41:57.456Z,75.20
2022-10-18T06:44:26.706Z,75.20
2022-10-18T06:46:56.976Z,75.30
2022-10-18T06:49:26.210Z,75.40
2022-10-18T06:51:55.834Z,75.40
2022-10-18T06:54:24.804Z,75.50
2022-10-18T06:56:57.528Z,75.60
2022-10-18T06:59:28.972Z,75.70
2022-10-18T07:02:01.586Z,75.80
2022-10-18T07:04:31.066Z,75.80
2022-10-18T07:07:00.089Z,75.90
2022-10-18T07:09:29.342Z,76.00
2022-10-18T07:11:58.386Z,76.00
2022-10-18T07:14:29.179Z,76.00
2022-10-18T07:17:01.373Z,76.00
2022-10-18T07:19:30.194Z,76.10
2022-10-18T07:21:59.133Z,76.20
2022-10-18T07:24:28.059Z,76.30
2022-10-18T07:26:57.199Z,76.30
2022-10-18T07:29:26.339Z,76.40
2022-10-18T07:31:55.648Z,76.40
2022-10-18T07:34:26.130Z,76.50
2022-10-18T07:36:55.134Z,76.70
2022-10-18T07:39:24.312Z,76.80
2022-10-18T07:41:53.335Z,76.70
2022-10-18T07:44:22.523Z,76.30
2022-10-18T07:46:51.646Z,76.00
2022-10-18T07:49:20.707Z,75.70
2022-10-18T07:51:51.635Z,76.50
2022-10-18T07:54:20.655Z,76.00
2022-10-18T07:56:49.661Z,75.80
2022-10-18T07:59:18.663Z,75.70
2022-10-18T08:01:47.706Z,75.70
2022-10-18T08:04:16.798Z,75.40
2022-10-18T08:06:45.843Z,76.20
2022-10-18T08:09:16.126Z,76.20
2022-10-18T08:11:45.839Z,75.40
2022-10-18T08:14:15.246Z,74.90
2022-10-18T08:16:44.275Z,74.90
2022-10-18T08:19:13.306Z,74.40
2022-10-18T08:21:42.280Z,73.10
2022-10-18T08:24:11.160Z,72.30
2022-10-18T08:26:41.354Z,71.30
2022-10-18T08:29:21.870Z,70.60
2022-10-18T08:31:53.042Z,69.50
2022-10-18T08:34:21.863Z,68.90
2022-10-18T08:36:50.933Z,68.50
2022-10-18T08:39:20.141Z,68.60
2022-10-18T08:42:13.100Z,68.70
2022-10-18T08:44:46.453Z,68.60
2022-10-18T08:47:18.657Z,68.80
2022-10-18T08:49:51.440Z,69.00
2022-10-18T08:52:31.308Z,68.90
2022-10-18T08:55:04.331Z,68.90
2022-10-18T08:57:34.980Z,69.20
2022-10-18T09:00:06.994Z,69.40
2022-10-18T09:02:50.811Z,69.40
2022-10-18T09:05:28.964Z,69.70
2022-10-18T09:08:23.596Z,69.70
2022-10-18T09:11:05.870Z,69.60
2022-10-18T09:13:57.514Z,69.90
2022-10-18T09:16:33.481Z,69.90
2022-10-18T09:19:12.324Z,69.90
2022-10-18T09:21:50.686Z,69.10
2022-10-18T09:24:26.906Z,68.90
2022-10-18T09:27:02.341Z,68.40
2022-10-18T09:29:46.606Z,68.20
2022-10-18T09:32:28.083Z,68.00
2022-10-18T09:34:59.171Z,68.60
2022-10-18T09:37:31.509Z,68.70
2022-10-18T09:40:07.600Z,68.90
2022-10-18T09:42:40.546Z,68.70
2022-10-18T09:45:23.478Z,68.90
2022-10-18T09:48:04.046Z,68.40
2022-10-18T09:50:38.254Z,68.00
2022-10-18T09:53:13.942Z,68.20
2022-10-18T09:55:56.343Z,68.20
2022-10-18T09:58:27.750Z,67.40
2022-10-18T10:00:58.296Z,67.00
2022-10-18T10:03:27.585Z,64.70
2022-10-18T10:06:15.897Z,63.60
2022-10-18T10:08:48.823Z,63.40
2022-10-18T10:11:29.239Z,63.20
2022-10-18T10:13:59.709Z,62.80
2022-10-18T10:16:29.931Z,63.10
2022-10-18T10:18:58.954Z,63.00
2022-10-18T10:21:28.026Z,62.80
2022-10-18T10:24:00.038Z,63.30
2022-10-18T10:26:33.090Z,63.70
2022-10-18T10:29:02.843Z,63.70
2022-10-18T10:31:34.324Z,63.40
2022-10-18T10:34:06.383Z,62.80
2022-10-18T10:36:35.378Z,63.00
2022-10-18T10:39:06.777Z,63.10
2022-10-18T10:41:36.127Z,63.10
2022-10-18T10:44:14.945Z,63.20
2022-10-18T10:46:45.477Z,63.40
2022-10-18T10:49:39.100Z,63.40
2022-10-18T10:52:26.708Z,63.80
2022-10-18T10:55:06.085Z,63.90
2022-10-18T10:57:40.245Z,63.80
2022-10-18T11:00:39.148Z,64.10
2022-10-18T11:03:27.732Z,64.20
2022-10-18T11:06:00.442Z,64.20
2022-10-18T11:08:33.978Z,64.10
2022-10-18T11:11:15.311Z,64.20
2022-10-18T11:14:01.582Z,64.40
2022-10-18T11:16:55.417Z,64.60
2022-10-18T11:19:35.263Z,64.90
2022-10-18T11:22:07.583Z,65.60
2022-10-18T11:24:37.431Z,66.00
2022-10-18T11:27:15.580Z,66.50
2022-10-18T11:30:03.952Z,66.80
2022-10-18T11:32:42.954Z,67.40
2022-10-18T11:35:27.056Z,67.50
2022-10-18T11:38:11.139Z,67.70
2022-10-18T11:40:55.735Z,67.90
2022-10-18T11:43:38.893Z,68.60
2022-10-18T11:46:27.862Z,68.60
2022-10-18T11:49:22.844Z,69.20
2022-10-18T11:52:08.434Z,69.50
2022-10-18T11:54:53.316Z,69.80
2022-10-18T11:57:40.865Z,70.20
2022-10-18T12:03:23.610Z,70.60
2022-10-18T12:05:57.011Z,70.90
2022-10-18T12:08:30.411Z,71.00
2022-10-18T12:11:06.226Z,71.20
2022-10-18T12:13:40.243Z,71.30
2022-10-18T12:16:10.999Z,71.50
2022-10-18T12:18:49.601Z,71.60
2022-10-18T12:21:25.499Z,72.10
2022-10-18T12:23:58.667Z,72.10
2022-10-18T12:26:29.689Z,72.10
2022-10-18T12:29:06.259Z,72.30
2022-10-18T12:31:41.230Z,72.40
2022-10-18T12:34:29.383Z,72.60
2022-10-18T12:37:22.416Z,73.00
2022-10-18T12:40:09.733Z,73.10
2022-10-18T12:42:43.652Z,73.10
2022-10-18T12:45:29.005Z,73.40
2022-10-18T12:48:02.099Z,73.70
2022-10-18T12:50:35.063Z,73.60
2022-10-18T12:53:16.650Z,73.80
2022-10-18T12:55:47.752Z,74.00
2022-10-18T12:58:37.803Z,73.90
2022-10-18T13:01:08.198Z,74.20
2022-10-18T13:03:59.611Z,74.10
2022-10-18T13:07:08.010Z,74.30
2022-10-18T13:09:39.823Z,74.40
2022-10-18T13:12:43.051Z,74.50
2022-10-18T13:15:35.982Z,74.90
2022-10-18T13:18:15.620Z,74.90
2022-10-18T13:21:21.090Z,74.70
2022-10-18T13:24:07.434Z,74.70
2022-10-18T13:26:54.146Z,74.80
2022-10-18T13:29:56.342Z,74.80
2022-10-18T13:32:31.920Z,74.80
2022-10-18T13:35:01.376Z,74.80
2022-10-18T13:37:31.122Z,75.00
2022-10-18T13:40:15.824Z,75.20
2022-10-18T13:42:46.019Z,75.20
2022-10-18T13:45:46.394Z,74.90
2022-10-18T13:48:50.503Z,75.00
2022-10-18T13:51:50.640Z,75.10
2022-10-18T13:54:48.270Z,74.60
2022-10-18T13:57:29.602Z,74.50
2022-10-18T14:00:27.404Z,74.10
2022-10-18T14:03:51.931Z,74.00
2022-10-18T14:06:19.082Z,73.80
2022-10-18T14:08:55.043Z,73.50
2022-10-18T14:11:33.414Z,73.70
2022-10-18T14:14:13.638Z,73.80
2022-10-18T14:16:48.821Z,74.00
2022-10-18T14:19:24.214Z,73.70
2022-10-18T14:21:57.793Z,73.80
2022-10-18T14:24:28.467Z,73.80
2022-10-18T14:27:12.712Z,73.60
2022-10-18T14:29:41.803Z,73.30
2022-10-18T14:32:22.501Z,73.10
2022-10-18T14:34:51.793Z,72.80
2022-10-18T14:37:28.154Z,72.80
2022-10-18T14:39:57.314Z,72.60
2022-10-18T14:42:28.898Z,72.70
2022-10-18T14:44:58.936Z,72.80
2022-10-18T14:47:31.279Z,72.90
2022-10-18T14:50:00.862Z,73.10
2022-10-18T14:52:35.487Z,73.30
2022-10-18T14:55:05.325Z,73.50
2022-10-18T14:57:36.655Z,73.30
2022-10-18T15:00:09.128Z,73.10
2022-10-18T15:02:40.975Z,73.10
2022-10-18T15:05:19.611Z,73.10
2022-10-18T15:07:50.250Z,73.10
2022-10-18T15:10:22.854Z,73.20
2022-10-18T15:13:08.685Z,73.10
2022-10-18T15:15:38.954Z,73.10
2022-10-18T15:18:21.796Z,73.10
2022-10-18T15:21:10.515Z,73.30
2022-10-18T15:23:39.585Z,73.50
2022-10-18T15:26:13.008Z,73.60
2022-10-18T15:28:49.820Z,73.70
2022-10-18T15:31:28.050Z,73.70
2022-10-18T15:34:10.859Z,73.70
2022-10-18T15:36:40.159Z,73.80
2022-10-18T15:39:15.220Z,73.60
2022-10-18T15:41:48.864Z,73.70
2022-10-18T15:44:25.315Z,73.70
2022-10-18T15:46:56.646Z,73.70
2022-10-18T15:49:52.171Z,73.50
2022-10-18T15:52:39.768Z,73.60
2022-10-18T15:55:46.103Z,73.70
2022-10-18T15:58:20.658Z,73.70
2022-10-18T16:00:50.992Z,73.70
2022-10-18T16:03:22.158Z,73.60
2022-10-18T16:05:56.938Z,73.60
2022-10-18T16:08:28.814Z,73.80
2022-10-18T16:10:58.844Z,73.80
2022-10-18T16:13:28.380Z,73.80
2022-10-18T16:15:57.363Z,73.80
2022-10-18T16:18:27.132Z,73.90
2022-10-18T16:20:57.522Z,74.00
2022-10-18T16:23:28.665Z,73.90
2022-10-18T16:25:58.162Z,74.00
2022-10-18T16:28:28.010Z,74.10
2022-10-18T16:30:58.948Z,74.20
2022-10-18T16:33:28.586Z,74.30
2022-10-18T16:35:59.490Z,74.40
2022-10-18T16:38:34.152Z,74.60
2022-10-18T16:41:05.548Z,74.60
2022-10-18T16:43:35.351Z,74.80
2022-10-18T16:46:05.319Z,74.90
2022-10-18T16:48:34.618Z,75.00
2022-10-18T16:51:05.035Z,75.10
2022-10-18T16:53:33.827Z,75.20
2022-10-18T16:56:04.989Z,75.40
2022-10-18T16:58:34.728Z,75.20
2022-10-18T17:01:06.701Z,74.40
2022-10-18T17:03:37.931Z,73.90
2022-10-18T17:06:14.506Z,73.30
2022-10-18T17:08:43.523Z,73.30
2022-10-18T17:11:14.536Z,73.00
2022-10-18T17:13:43.623Z,72.90
2022-10-18T17:16:22.406Z,72.90
2022-10-18T17:18:51.652Z,73.00
2022-10-18T17:21:22.351Z,73.00
2022-10-18T17:23:51.511Z,72.90
2022-10-18T17:26:30.541Z,73.00
2022-10-18T17:29:01.530Z,72.90
2022-10-18T17:31:32.240Z,73.00
2022-10-18T17:34:01.881Z,73.20
2022-10-18T17:36:33.600Z,73.30
2022-10-18T17:39:03.010Z,73.40
2022-10-18T17:41:31.864Z,73.30
2022-10-18T17:44:02.783Z,73.40
2022-10-18T17:46:31.732Z,73.40
2022-10-18T17:49:00.705Z,73.60
2022-10-18T17:51:29.443Z,73.50
2022-10-18T17:53:59.772Z,73.70
2022-10-18T17:56:33.274Z,73.70
2022-10-18T17:59:02.784Z,73.70
2022-10-18T18:01:31.953Z,73.60
2022-10-18T18:04:02.583Z,73.70
2022-10-18T18:06:33.993Z,73.90
2022-10-18T18:09:07.955Z,74.10
2022-10-18T18:11:38.597Z,74.10
2022-10-18T18:14:09.055Z,74.20
2022-10-18T18:16:39.099Z,74.10
2022-10-18T18:19:10.000Z,74.20
2022-10-18T18:21:40.149Z,74.20
2022-10-18T18:24:11.123Z,74.20
2022-10-18T18:26:41.062Z,74.40
2022-10-18T18:29:13.171Z,74.30
2022-10-18T18:31:44.541Z,74.20
2022-10-18T18:34:13.479Z,74.30
2022-10-18T18:36:42.803Z,74.30
2022-10-18T18:39:22.347Z,74.40
2022-10-18T18:41:52.808Z,74.30
2022-10-18T18:44:22.498Z,74.30
2022-10-18T18:46:51.525Z,74.40
2022-10-18T18:49:21.686Z,74.40
2022-10-18T18:51:50.567Z,74.50
2022-10-18T18:54:22.016Z,74.50
2022-10-18T18:56:51.148Z,74.40
2022-10-18T18:59:20.339Z,74.40
2022-10-18T19:01:49.286Z,74.40
2022-10-18T19:04:18.394Z,74.50
2022-10-18T19:06:47.297Z,74.60
2022-10-18T19:09:20.639Z,74.60
2022-10-18T19:11:52.796Z,74.60
2022-10-18T19:14:23.921Z,74.60
2022-10-18T19:16:54.258Z,74.60
2022-10-18T19:19:24.696Z,74.70
2022-10-18T19:21:55.047Z,74.70
2022-10-18T19:24:25.616Z,74.60
2022-10-18T19:26:57.425Z,74.80
2022-10-18T19:29:27.825Z,74.80
2022-10-18T19:31:59.266Z,74.70
2022-10-18T19:34:30.071Z,74.80
2022-10-18T19:36:59.167Z,74.80
2022-10-18T19:39:29.611Z,74.90
2022-10-18T19:42:03.043Z,75.00
2022-10-18T19:44:33.802Z,75.10
2022-10-18T19:47:03.021Z,75.10
2022-10-18T19:49:32.030Z,75.00
2022-10-18T19:52:00.802Z,75.00
2022-10-18T19:54:29.605Z,75.10
2022-10-18T19:56:59.580Z,75.10
2022-10-18T19:59:28.495Z,75.00
2022-10-18T20:01:57.198Z,75.10
2022-10-18T20:04:25.817Z,75.00
2022-10-18T20:06:54.678Z,74.90
2022-10-18T20:09:23.719Z,74.80
2022-10-18T20:11:52.410Z,74.70
2022-10-18T20:14:22.656Z,74.70
2022-10-18T20:16:51.351Z,74.60
2022-10-18T20:19:20.020Z,74.50
2022-10-18T20:21:48.874Z,74.60
2022-10-18T20:24:18.053Z,74.60
2022-10-18T20:26:46.759Z,74.60
2022-10-18T20:29:15.887Z,74.80
2022-10-18T20:31:47.463Z,74.90
2022-10-18T20:34:16.330Z,74.80
2022-10-18T20:36:45.187Z,75.00
2022-10-18T20:39:13.997Z,75.10
2022-10-18T20:41:42.695Z,75.10
2022-10-18T20:44:14.642Z,75.40
2022-10-18T20:46:44.543Z,75.50
2022-10-18T20:49:16.618Z,75.40
2022-10-18T20:51:46.070Z,75.40
2022-10-18T20:54:15.003Z,75.30
2022-10-18T20:56:43.795Z,75.20
2022-10-18T20:59:41.027Z,75.20
2022-10-18T21:02:11.731Z,75.20
2022-10-18T21:04:42.459Z,75.10
2022-10-18T21:07:11.290Z,75.10
2022-10-18T21:09:40.511Z,75.30
2022-10-18T21:14:37.964Z,75.50
2022-10-18T21:17:06.673Z,75.50
2022-10-18T21:19:35.647Z,75.50
2022-10-18T21:22:05.698Z,76.30
2022-10-18T21:24:34.675Z,75.60
2022-10-18T21:27:03.355Z,75.70
2022-10-18T21:29:32.017Z,75.80
2022-10-18T21:32:00.865Z,75.70
2022-10-18T21:34:29.932Z,75.80
2022-10-18T21:36:58.707Z,75.80
2022-10-18T21:39:29.913Z,75.90
2022-10-18T21:41:58.684Z,75.90
2022-10-18T21:44:27.678Z,76.00
2022-10-18T21:46:56.886Z,76.20
2022-10-18T21:49:27.999Z,76.30
2022-10-18T21:51:56.715Z,76.30
2022-10-18T21:54:25.693Z,76.50
2022-10-18T21:56:55.854Z,76.50
2022-10-18T21:59:24.749Z,76.50
2022-10-18T22:01:53.957Z,76.50
2022-10-18T22:04:24.302Z,76.40
2022-10-18T22:06:53.443Z,76.30
2022-10-18T22:09:22.526Z,76.30
2022-10-18T22:11:53.625Z,76.40
2022-10-18T22:14:24.663Z,76.70
2022-10-18T22:16:53.862Z,76.70
2022-10-18T22:19:22.672Z,76.80
2022-10-18T22:21:51.817Z,76.90
2022-10-18T22:24:21.025Z,76.90
2022-10-18T22:26:49.988Z,76.90
2022-10-18T22:29:20.187Z,77.10
2022-10-18T22:31:52.390Z,77.10
2022-10-18T22:34:23.828Z,77.10
2022-10-18T22:36:52.532Z,76.90
2022-10-18T22:39:21.826Z,77.00
2022-10-18T22:41:55.688Z,77.00
2022-10-18T22:44:25.200Z,76.90
2022-10-18T22:46:55.263Z,77.00
2022-10-18T22:49:24.386Z,77.00
2022-10-18T22:51:53.142Z,77.00
2022-10-18T22:54:22.010Z,77.00
2022-10-18T22:56:50.727Z,77.00
2022-10-18T22:59:19.526Z,77.00
2022-10-18T23:01:48.211Z,77.00
2022-10-18T23:04:18.319Z,77.00
2022-10-18T23:06:47.500Z,77.00
2022-10-18T23:09:16.194Z,77.00
2022-10-18T23:11:44.889Z,77.00
2022-10-18T23:14:13.594Z,76.80
2022-10-18T23:16:42.262Z,76.80
2022-10-18T23:19:15.872Z,76.80
2022-10-18T23:21:46.041Z,76.70
2022-10-18T23:24:14.770Z,76.70
2022-10-18T23:26:43.458Z,76.80
2022-10-18T23:29:12.260Z,76.80
2022-10-18T23:31:40.995Z,76.70
2022-10-18T23:34:10.686Z,76.70
2022-10-18T23:36:39.466Z,76.70
2022-10-18T23:39:09.623Z,76.60
2022-10-18T23:41:38.319Z,76.60
2022-10-18T23:44:08.919Z,76.70
2022-10-18T23:46:37.819Z,76.60
2022-10-18T23:49:06.555Z,76.70
2022-10-18T23:51:35.226Z,76.80
2022-10-18T23:54:04.554Z,76.90
2022-10-18T23:56:35.264Z,76.80
2022-10-18T23:59:04.433Z,76.70
